sensor_id;sensor_type;location;lat;lon;timestamp;P1;durP1;ratioP1;P2;durP2;ratioP2
11066;SDS011;29763;50.904;5.530;2023-08-20T00:01:22;10.43;;;8.15;;
11066;SDS011;29763;50.904;5.530;2023-08-20T00:03:53;8.15;;;7.32;;
11066;SDS011;29763;50.904;5.530;2023-08-20T00:06:21;8.10;;;7.30;;
11066;SDS011;29763;50.904;5.530;2023-08-20T00:08:54;8.82;;;7.35;;
11066;SDS011;29763;50.904;5.530;2023-08-20T00:11:20;11.38;;;9.98;;
11066;SDS011;29763;50.904;5.530;2023-08-20T00:13:52;10.10;;;9.05;;
11066;SDS011;29763;50.904;5.530;2023-08-20T00:16:20;8.23;;;7.20;;
11066;SDS011;29763;50.904;5.530;2023-08-20T00:18:48;10.00;;;7.82;;
11066;SDS011;29763;50.904;5.530;2023-08-20T00:21:14;8.15;;;7.35;;
11066;SDS011;29763;50.904;5.530;2023-08-20T00:23:40;7.75;;;6.57;;
11066;SDS011;29763;50.904;5.530;2023-08-20T00:26:08;8.00;;;7.20;;
11066;SDS011;29763;50.904;5.530;2023-08-20T00:28:36;7.75;;;7.05;;
11066;SDS011;29763;50.904;5.530;2023-08-20T00:31:05;6.93;;;6.10;;
11066;SDS011;29763;50.904;5.530;2023-08-20T00:33:31;9.05;;;6.70;;
11066;SDS011;29763;50.904;5.530;2023-08-20T00:35:59;9.57;;;7.35;;
11066;SDS011;29763;50.904;5.530;2023-08-20T00:38:27;8.48;;;7.63;;
11066;SDS011;29763;50.904;5.530;2023-08-20T00:40:53;9.77;;;7.50;;
11066;SDS011;29763;50.904;5.530;2023-08-20T00:43:20;9.02;;;8.15;;
11066;SDS011;29763;50.904;5.530;2023-08-20T00:45:48;8.65;;;7.78;;
11066;SDS011;29763;50.904;5.530;2023-08-20T00:48:17;11.45;;;8.60;;
11066;SDS011;29763;50.904;5.530;2023-08-20T00:50:51;8.75;;;8.05;;
11066;SDS011;29763;50.904;5.530;2023-08-20T00:53:20;8.18;;;7.47;;
11066;SDS011;29763;50.904;5.530;2023-08-20T00:55:50;7.97;;;7.28;;
11066;SDS011;29763;50.904;5.530;2023-08-20T00:58:18;7.10;;;6.40;;
11066;SDS011;29763;50.904;5.530;2023-08-20T01:00:45;7.55;;;6.32;;
11066;SDS011;29763;50.904;5.530;2023-08-20T01:03:12;7.85;;;7.15;;
11066;SDS011;29763;50.904;5.530;2023-08-20T01:05:46;8.80;;;7.90;;
11066;SDS011;29763;50.904;5.530;2023-08-20T01:10:59;8.38;;;7.57;;
11066;SDS011;29763;50.904;5.530;2023-08-20T01:13:30;8.27;;;7.43;;
11066;SDS011;29763;50.904;5.530;2023-08-20T01:15:56;8.07;;;7.35;;
11066;SDS011;29763;50.904;5.530;2023-08-20T01:18:23;9.75;;;8.77;;
11066;SDS011;29763;50.904;5.530;2023-08-20T01:20:58;10.27;;;9.10;;
11066;SDS011;29763;50.904;5.530;2023-08-20T01:29:37;10.68;;;9.25;;
11066;SDS011;29763;50.904;5.530;2023-08-20T01:32:04;17.25;;;10.65;;
11066;SDS011;29763;50.904;5.530;2023-08-20T01:34:31;14.02;;;12.18;;
11066;SDS011;29763;50.904;5.530;2023-08-20T01:36:59;13.13;;;11.90;;
11066;SDS011;29763;50.904;5.530;2023-08-20T01:39:31;11.55;;;10.50;;
11066;SDS011;29763;50.904;5.530;2023-08-20T01:42:02;12.10;;;10.70;;
11066;SDS011;29763;50.904;5.530;2023-08-20T01:44:27;13.23;;;10.57;;
11066;SDS011;29763;50.904;5.530;2023-08-20T01:46:53;12.05;;;10.73;;
11066;SDS011;29763;50.904;5.530;2023-08-20T01:49:19;12.50;;;10.82;;
11066;SDS011;29763;50.904;5.530;2023-08-20T01:51:45;12.60;;;10.32;;
11066;SDS011;29763;50.904;5.530;2023-08-20T01:54:12;15.45;;;10.85;;
11066;SDS011;29763;50.904;5.530;2023-08-20T01:56:39;11.98;;;10.30;;
11066;SDS011;29763;50.904;5.530;2023-08-20T01:59:05;12.02;;;10.30;;
11066;SDS011;29763;50.904;5.530;2023-08-20T02:01:31;11.02;;;10.00;;
11066;SDS011;29763;50.904;5.530;2023-08-20T02:03:58;10.73;;;9.63;;
11066;SDS011;29763;50.904;5.530;2023-08-20T02:06:24;10.77;;;9.63;;
11066;SDS011;29763;50.904;5.530;2023-08-20T02:08:50;11.35;;;10.25;;
11066;SDS011;29763;50.904;5.530;2023-08-20T02:11:15;10.18;;;9.05;;
11066;SDS011;29763;50.904;5.530;2023-08-20T02:13:41;11.40;;;10.20;;
11066;SDS011;29763;50.904;5.530;2023-08-20T02:16:07;11.00;;;9.43;;
11066;SDS011;29763;50.904;5.530;2023-08-20T02:18:34;13.18;;;9.85;;
11066;SDS011;29763;50.904;5.530;2023-08-20T02:21:00;10.93;;;8.27;;
11066;SDS011;29763;50.904;5.530;2023-08-20T02:23:25;9.65;;;8.30;;
11066;SDS011;29763;50.904;5.530;2023-08-20T02:25:52;9.27;;;8.07;;
11066;SDS011;29763;50.904;5.530;2023-08-20T02:28:19;9.27;;;8.10;;
11066;SDS011;29763;50.904;5.530;2023-08-20T02:30:47;10.68;;;8.85;;
11066;SDS011;29763;50.904;5.530;2023-08-20T02:33:13;10.57;;;8.77;;
11066;SDS011;29763;50.904;5.530;2023-08-20T02:35:38;13.10;;;9.43;;
11066;SDS011;29763;50.904;5.530;2023-08-20T02:38:06;12.15;;;9.40;;
11066;SDS011;29763;50.904;5.530;2023-08-20T02:40:38;12.60;;;9.35;;
11066;SDS011;29763;50.904;5.530;2023-08-20T02:43:09;12.13;;;8.80;;
11066;SDS011;29763;50.904;5.530;2023-08-20T02:45:40;12.02;;;8.68;;
11066;SDS011;29763;50.904;5.530;2023-08-20T02:48:08;11.52;;;7.95;;
11066;SDS011;29763;50.904;5.530;2023-08-20T02:50:35;12.07;;;8.60;;
11066;SDS011;29763;50.904;5.530;2023-08-20T02:53:03;11.15;;;8.02;;
11066;SDS011;29763;50.904;5.530;2023-08-20T02:55:30;10.30;;;8.38;;
11066;SDS011;29763;50.904;5.530;2023-08-20T02:57:57;11.90;;;7.57;;
11066;SDS011;29763;50.904;5.530;2023-08-20T03:00:23;13.02;;;7.55;;
11066;SDS011;29763;50.904;5.530;2023-08-20T03:02:49;11.75;;;7.85;;
11066;SDS011;29763;50.904;5.530;2023-08-20T03:05:17;12.10;;;7.15;;
11066;SDS011;29763;50.904;5.530;2023-08-20T03:07:44;11.25;;;7.72;;
11066;SDS011;29763;50.904;5.530;2023-08-20T03:10:10;12.38;;;8.18;;
11066;SDS011;29763;50.904;5.530;2023-08-20T03:12:37;13.38;;;7.90;;
11066;SDS011;29763;50.904;5.530;2023-08-20T03:15:04;11.48;;;7.43;;
11066;SDS011;29763;50.904;5.530;2023-08-20T03:17:30;8.77;;;7.75;;
11066;SDS011;29763;50.904;5.530;2023-08-20T03:19:59;9.88;;;8.18;;
11066;SDS011;29763;50.904;5.530;2023-08-20T03:22:28;12.50;;;8.55;;
11066;SDS011;29763;50.904;5.530;2023-08-20T03:24:54;12.75;;;8.85;;
11066;SDS011;29763;50.904;5.530;2023-08-20T03:27:21;12.60;;;9.10;;
11066;SDS011;29763;50.904;5.530;2023-08-20T03:29:47;10.95;;;9.00;;
11066;SDS011;29763;50.904;5.530;2023-08-20T03:32:13;11.40;;;9.10;;
11066;SDS011;29763;50.904;5.530;2023-08-20T03:34:40;15.23;;;9.00;;
11066;SDS011;29763;50.904;5.530;2023-08-20T03:37:13;12.63;;;9.25;;
11066;SDS011;29763;50.904;5.530;2023-08-20T03:39:50;11.07;;;9.25;;
11066;SDS011;29763;50.904;5.530;2023-08-20T03:42:16;15.18;;;10.13;;
11066;SDS011;29763;50.904;5.530;2023-08-20T03:44:44;14.27;;;10.63;;
11066;SDS011;29763;50.904;5.530;2023-08-20T03:47:11;11.32;;;10.23;;
11066;SDS011;29763;50.904;5.530;2023-08-20T03:49:38;11.25;;;8.85;;
11066;SDS011;29763;50.904;5.530;2023-08-20T03:52:06;11.63;;;7.72;;
11066;SDS011;29763;50.904;5.530;2023-08-20T03:54:33;9.48;;;7.22;;
11066;SDS011;29763;50.904;5.530;2023-08-20T03:57:00;10.68;;;7.07;;
11066;SDS011;29763;50.904;5.530;2023-08-20T03:59:26;9.45;;;7.63;;
11066;SDS011;29763;50.904;5.530;2023-08-20T04:01:57;12.57;;;7.28;;
11066;SDS011;29763;50.904;5.530;2023-08-20T04:04:29;9.80;;;7.40;;
11066;SDS011;29763;50.904;5.530;2023-08-20T04:06:57;11.63;;;7.70;;
11066;SDS011;29763;50.904;5.530;2023-08-20T04:09:25;10.32;;;7.63;;
11066;SDS011;29763;50.904;5.530;2023-08-20T04:11:53;7.85;;;7.05;;
11066;SDS011;29763;50.904;5.530;2023-08-20T04:14:27;8.45;;;7.55;;
11066;SDS011;29763;50.904;5.530;2023-08-20T04:16:56;10.25;;;7.18;;
11066;SDS011;29763;50.904;5.530;2023-08-20T04:19:23;9.15;;;7.30;;
11066;SDS011;29763;50.904;5.530;2023-08-20T04:21:50;9.88;;;7.90;;
11066;SDS011;29763;50.904;5.530;2023-08-20T04:24:17;9.35;;;7.40;;
11066;SDS011;29763;50.904;5.530;2023-08-20T04:26:46;8.98;;;7.75;;
11066;SDS011;29763;50.904;5.530;2023-08-20T04:29:13;8.52;;;7.43;;
11066;SDS011;29763;50.904;5.530;2023-08-20T04:31:40;10.20;;;7.72;;
11066;SDS011;29763;50.904;5.530;2023-08-20T04:34:06;9.60;;;8.10;;
11066;SDS011;29763;50.904;5.530;2023-08-20T04:36:32;10.57;;;7.35;;
11066;SDS011;29763;50.904;5.530;2023-08-20T04:38:59;8.70;;;7.82;;
11066;SDS011;29763;50.904;5.530;2023-08-20T04:41:27;9.68;;;8.63;;
11066;SDS011;29763;50.904;5.530;2023-08-20T04:43:53;8.65;;;7.82;;
11066;SDS011;29763;50.904;5.530;2023-08-20T04:46:19;11.18;;;8.95;;
11066;SDS011;29763;50.904;5.530;2023-08-20T04:48:58;10.48;;;9.30;;
11066;SDS011;29763;50.904;5.530;2023-08-20T04:51:26;9.95;;;8.95;;
11066;SDS011;29763;50.904;5.530;2023-08-20T04:53:53;9.57;;;8.70;;
11066;SDS011;29763;50.904;5.530;2023-08-20T04:56:20;12.50;;;9.70;;
11066;SDS011;29763;50.904;5.530;2023-08-20T04:58:47;13.35;;;9.15;;
11066;SDS011;29763;50.904;5.530;2023-08-20T05:01:15;9.13;;;8.23;;
11066;SDS011;29763;50.904;5.530;2023-08-20T05:03:41;8.40;;;7.53;;
11066;SDS011;29763;50.904;5.530;2023-08-20T05:06:09;12.18;;;9.45;;
11066;SDS011;29763;50.904;5.530;2023-08-20T05:08:35;11.20;;;8.27;;
11066;SDS011;29763;50.904;5.530;2023-08-20T05:11:00;10.18;;;8.88;;
11066;SDS011;29763;50.904;5.530;2023-08-20T05:13:32;9.80;;;8.80;;
11066;SDS011;29763;50.904;5.530;2023-08-20T05:15:58;8.90;;;8.10;;
11066;SDS011;29763;50.904;5.530;2023-08-20T05:18:24;11.70;;;9.13;;
11066;SDS011;29763;50.904;5.530;2023-08-20T05:20:51;10.90;;;8.85;;
11066;SDS011;29763;50.904;5.530;2023-08-20T05:23:18;11.02;;;10.02;;
11066;SDS011;29763;50.904;5.530;2023-08-20T05:25:45;12.48;;;10.70;;
11066;SDS011;29763;50.904;5.530;2023-08-20T05:28:11;11.27;;;9.43;;
11066;SDS011;29763;50.904;5.530;2023-08-20T05:30:52;11.07;;;9.93;;
11066;SDS011;29763;50.904;5.530;2023-08-20T05:33:22;12.07;;;10.32;;
11066;SDS011;29763;50.904;5.530;2023-08-20T05:35:50;11.60;;;9.77;;
11066;SDS011;29763;50.904;5.530;2023-08-20T05:38:16;11.63;;;9.95;;
11066;SDS011;29763;50.904;5.530;2023-08-20T05:40:47;11.68;;;10.48;;
11066;SDS011;29763;50.904;5.530;2023-08-20T05:43:14;12.43;;;11.13;;
11066;SDS011;29763;50.904;5.530;2023-08-20T05:45:42;11.85;;;10.65;;
11066;SDS011;29763;50.904;5.530;2023-08-20T05:48:08;12.15;;;10.85;;
11066;SDS011;29763;50.904;5.530;2023-08-20T05:50:34;11.60;;;10.40;;
11066;SDS011;29763;50.904;5.530;2023-08-20T05:53:00;11.20;;;9.85;;
11066;SDS011;29763;50.904;5.530;2023-08-20T05:55:26;10.93;;;9.75;;
11066;SDS011;29763;50.904;5.530;2023-08-20T05:57:57;10.43;;;8.88;;
11066;SDS011;29763;50.904;5.530;2023-08-20T06:00:23;9.23;;;8.43;;
11066;SDS011;29763;50.904;5.530;2023-08-20T06:02:50;10.18;;;8.65;;
11066;SDS011;29763;50.904;5.530;2023-08-20T06:05:17;11.65;;;8.60;;
11066;SDS011;29763;50.904;5.530;2023-08-20T06:07:45;13.40;;;9.23;;
11066;SDS011;29763;50.904;5.530;2023-08-20T06:10:16;9.07;;;8.10;;
11066;SDS011;29763;50.904;5.530;2023-08-20T06:12:41;10.73;;;9.63;;
11066;SDS011;29763;50.904;5.530;2023-08-20T06:15:07;10.90;;;9.90;;
11066;SDS011;29763;50.904;5.530;2023-08-20T06:17:41;13.95;;;10.55;;
11066;SDS011;29763;50.904;5.530;2023-08-20T06:20:07;12.35;;;10.35;;
11066;SDS011;29763;50.904;5.530;2023-08-20T06:22:33;10.77;;;9.70;;
11066;SDS011;29763;50.904;5.530;2023-08-20T06:24:59;11.05;;;8.80;;
11066;SDS011;29763;50.904;5.530;2023-08-20T06:27:27;13.55;;;9.30;;
11066;SDS011;29763;50.904;5.530;2023-08-20T06:29:54;13.60;;;9.30;;
11066;SDS011;29763;50.904;5.530;2023-08-20T06:32:21;11.25;;;9.60;;
11066;SDS011;29763;50.904;5.530;2023-08-20T06:34:46;9.07;;;8.18;;
11066;SDS011;29763;50.904;5.530;2023-08-20T06:37:16;12.23;;;8.68;;
11066;SDS011;29763;50.904;5.530;2023-08-20T06:39:48;12.43;;;8.32;;
11066;SDS011;29763;50.904;5.530;2023-08-20T06:42:16;10.82;;;8.50;;
11066;SDS011;29763;50.904;5.530;2023-08-20T06:44:45;10.27;;;7.75;;
11066;SDS011;29763;50.904;5.530;2023-08-20T06:47:12;9.75;;;7.72;;
11066;SDS011;29763;50.904;5.530;2023-08-20T06:49:44;8.90;;;6.90;;
11066;SDS011;29763;50.904;5.530;2023-08-20T06:52:10;9.27;;;6.88;;
11066;SDS011;29763;50.904;5.530;2023-08-20T06:57:28;11.38;;;6.75;;
11066;SDS011;29763;50.904;5.530;2023-08-20T07:00:05;12.85;;;7.55;;
11066;SDS011;29763;50.904;5.530;2023-08-20T07:02:37;9.57;;;7.60;;
11066;SDS011;29763;50.904;5.530;2023-08-20T07:05:05;11.32;;;8.65;;
11066;SDS011;29763;50.904;5.530;2023-08-20T07:07:31;11.18;;;8.60;;
11066;SDS011;29763;50.904;5.530;2023-08-20T07:10:05;12.32;;;8.70;;
11066;SDS011;29763;50.904;5.530;2023-08-20T07:12:31;12.82;;;9.00;;
11066;SDS011;29763;50.904;5.530;2023-08-20T07:14:57;10.45;;;8.63;;
11066;SDS011;29763;50.904;5.530;2023-08-20T07:17:23;11.00;;;8.25;;
11066;SDS011;29763;50.904;5.530;2023-08-20T07:19:49;10.25;;;7.75;;
11066;SDS011;29763;50.904;5.530;2023-08-20T07:22:16;11.35;;;7.00;;
11066;SDS011;29763;50.904;5.530;2023-08-20T07:24:45;8.90;;;7.35;;
11066;SDS011;29763;50.904;5.530;2023-08-20T07:27:10;9.18;;;7.97;;
11066;SDS011;29763;50.904;5.530;2023-08-20T07:29:38;11.32;;;7.93;;
11066;SDS011;29763;50.904;5.530;2023-08-20T07:32:05;10.77;;;7.30;;
11066;SDS011;29763;50.904;5.530;2023-08-20T07:34:33;10.90;;;8.50;;
11066;SDS011;29763;50.904;5.530;2023-08-20T07:36:59;8.77;;;7.43;;
11066;SDS011;29763;50.904;5.530;2023-08-20T07:39:28;11.05;;;8.35;;
11066;SDS011;29763;50.904;5.530;2023-08-20T07:41:54;12.13;;;7.28;;
11066;SDS011;29763;50.904;5.530;2023-08-20T07:44:22;9.20;;;7.53;;
11066;SDS011;29763;50.904;5.530;2023-08-20T07:47:00;8.98;;;6.93;;
11066;SDS011;29763;50.904;5.530;2023-08-20T07:49:30;10.48;;;8.10;;
11066;SDS011;29763;50.904;5.530;2023-08-20T07:52:05;12.23;;;7.47;;
11066;SDS011;29763;50.904;5.530;2023-08-20T07:54:31;10.60;;;7.25;;
11066;SDS011;29763;50.904;5.530;2023-08-20T07:56:58;8.05;;;6.93;;
11066;SDS011;29763;50.904;5.530;2023-08-20T07:59:24;9.70;;;7.20;;
11066;SDS011;29763;50.904;5.530;2023-08-20T08:01:51;10.00;;;7.22;;
11066;SDS011;29763;50.904;5.530;2023-08-20T08:04:20;8.52;;;6.70;;
11066;SDS011;29763;50.904;5.530;2023-08-20T08:06:52;10.90;;;7.20;;
11066;SDS011;29763;50.904;5.530;2023-08-20T08:09:18;9.02;;;6.95;;
11066;SDS011;29763;50.904;5.530;2023-08-20T08:12:03;9.73;;;7.22;;
11066;SDS011;29763;50.904;5.530;2023-08-20T08:14:34;10.07;;;7.13;;
11066;SDS011;29763;50.904;5.530;2023-08-20T08:17:11;9.95;;;7.43;;
11066;SDS011;29763;50.904;5.530;2023-08-20T08:19:40;12.02;;;7.18;;
11066;SDS011;29763;50.904;5.530;2023-08-20T08:22:09;11.32;;;8.13;;
11066;SDS011;29763;50.904;5.530;2023-08-20T08:24:37;12.32;;;8.45;;
11066;SDS011;29763;50.904;5.530;2023-08-20T08:27:10;9.20;;;7.15;;
11066;SDS011;29763;50.904;5.530;2023-08-20T08:29:35;11.30;;;8.18;;
11066;SDS011;29763;50.904;5.530;2023-08-20T08:32:01;10.63;;;7.88;;
11066;SDS011;29763;50.904;5.530;2023-08-20T08:34:31;12.00;;;8.10;;
11066;SDS011;29763;50.904;5.530;2023-08-20T08:36:59;11.82;;;7.40;;
11066;SDS011;29763;50.904;5.530;2023-08-20T08:39:28;8.95;;;7.57;;
11066;SDS011;29763;50.904;5.530;2023-08-20T08:42:04;12.45;;;7.60;;
11066;SDS011;29763;50.904;5.530;2023-08-20T08:44:32;11.05;;;7.70;;
11066;SDS011;29763;50.904;5.530;2023-08-20T08:47:02;10.18;;;7.00;;
11066;SDS011;29763;50.904;5.530;2023-08-20T08:49:28;10.45;;;7.10;;
11066;SDS011;29763;50.904;5.530;2023-08-20T08:51:58;8.93;;;6.78;;
11066;SDS011;29763;50.904;5.530;2023-08-20T08:54:33;11.50;;;7.35;;
11066;SDS011;29763;50.904;5.530;2023-08-20T08:57:01;11.77;;;7.38;;
11066;SDS011;29763;50.904;5.530;2023-08-20T08:59:42;9.15;;;6.20;;
11066;SDS011;29763;50.904;5.530;2023-08-20T09:02:13;8.77;;;6.57;;
11066;SDS011;29763;50.904;5.530;2023-08-20T09:04:42;10.27;;;6.80;;
11066;SDS011;29763;50.904;5.530;2023-08-20T09:07:13;11.15;;;7.20;;
11066;SDS011;29763;50.904;5.530;2023-08-20T09:09:44;9.07;;;6.50;;
11066;SDS011;29763;50.904;5.530;2023-08-20T09:12:19;8.85;;;6.97;;
11066;SDS011;29763;50.904;5.530;2023-08-20T09:15:09;8.32;;;6.82;;
11066;SDS011;29763;50.904;5.530;2023-08-20T09:17:41;10.70;;;7.43;;
11066;SDS011;29763;50.904;5.530;2023-08-20T09:20:07;10.35;;;7.03;;
11066;SDS011;29763;50.904;5.530;2023-08-20T09:22:34;8.07;;;6.05;;
11066;SDS011;29763;50.904;5.530;2023-08-20T09:25:05;9.68;;;7.20;;
11066;SDS011;29763;50.904;5.530;2023-08-20T09:27:41;8.60;;;6.82;;
11066;SDS011;29763;50.904;5.530;2023-08-20T09:30:22;8.80;;;7.45;;
11066;SDS011;29763;50.904;5.530;2023-08-20T09:33:06;8.90;;;7.30;;
11066;SDS011;29763;50.904;5.530;2023-08-20T09:35:34;11.82;;;8.23;;
11066;SDS011;29763;50.904;5.530;2023-08-20T09:38:00;10.93;;;7.05;;
11066;SDS011;29763;50.904;5.530;2023-08-20T09:40:28;11.15;;;8.60;;
11066;SDS011;29763;50.904;5.530;2023-08-20T09:42:57;10.93;;;8.25;;
11066;SDS011;29763;50.904;5.530;2023-08-20T09:45:34;10.90;;;7.60;;
11066;SDS011;29763;50.904;5.530;2023-08-20T09:48:13;11.77;;;8.40;;
11066;SDS011;29763;50.904;5.530;2023-08-20T09:51:26;10.15;;;8.35;;
11066;SDS011;29763;50.904;5.530;2023-08-20T09:54:21;13.18;;;8.40;;
11066;SDS011;29763;50.904;5.530;2023-08-20T09:56:54;11.85;;;8.02;;
11066;SDS011;29763;50.904;5.530;2023-08-20T09:59:30;12.18;;;9.82;;
11066;SDS011;29763;50.904;5.530;2023-08-20T10:02:08;13.60;;;12.10;;
11066;SDS011;29763;50.904;5.530;2023-08-20T10:04:48;12.18;;;11.05;;
11066;SDS011;29763;50.904;5.530;2023-08-20T10:07:18;11.25;;;10.10;;
11066;SDS011;29763;50.904;5.530;2023-08-20T10:09:45;12.82;;;11.13;;
11066;SDS011;29763;50.904;5.530;2023-08-20T10:12:16;12.55;;;11.27;;
11066;SDS011;29763;50.904;5.530;2023-08-20T10:14:47;13.63;;;12.00;;
11066;SDS011;29763;50.904;5.530;2023-08-20T10:17:16;14.13;;;12.45;;
11066;SDS011;29763;50.904;5.530;2023-08-20T10:19:51;13.05;;;11.82;;
11066;SDS011;29763;50.904;5.530;2023-08-20T10:22:22;12.55;;;11.27;;
11066;SDS011;29763;50.904;5.530;2023-08-20T10:25:07;12.18;;;10.90;;
11066;SDS011;29763;50.904;5.530;2023-08-20T10:27:36;11.63;;;10.50;;
11066;SDS011;29763;50.904;5.530;2023-08-20T10:30:13;10.40;;;9.00;;
11066;SDS011;29763;50.904;5.530;2023-08-20T10:32:54;9.98;;;8.98;;
11066;SDS011;29763;50.904;5.530;2023-08-20T10:43:40;8.32;;;7.35;;
11066;SDS011;29763;50.904;5.530;2023-08-20T10:46:22;7.90;;;6.32;;
11066;SDS011;29763;50.904;5.530;2023-08-20T10:49:01;7.65;;;5.70;;
11066;SDS011;29763;50.904;5.530;2023-08-20T10:51:37;6.88;;;5.85;;
11066;SDS011;29763;50.904;5.530;2023-08-20T10:54:09;6.82;;;5.85;;
11066;SDS011;29763;50.904;5.530;2023-08-20T10:56:57;7.35;;;5.75;;
11066;SDS011;29763;50.904;5.530;2023-08-20T10:59:32;6.60;;;5.88;;
11066;SDS011;29763;50.904;5.530;2023-08-20T11:01:59;6.45;;;5.47;;
11066;SDS011;29763;50.904;5.530;2023-08-20T11:04:27;7.28;;;5.20;;
11066;SDS011;29763;50.904;5.530;2023-08-20T11:06:57;6.25;;;4.90;;
11066;SDS011;29763;50.904;5.530;2023-08-20T11:09:30;7.57;;;5.18;;
11066;SDS011;29763;50.904;5.530;2023-08-20T11:12:05;8.82;;;5.20;;
11066;SDS011;29763;50.904;5.530;2023-08-20T11:14:42;6.13;;;5.20;;
11066;SDS011;29763;50.904;5.530;2023-08-20T11:17:11;5.95;;;4.28;;
11066;SDS011;29763;50.904;5.530;2023-08-20T11:19:41;5.32;;;4.35;;
11066;SDS011;29763;50.904;5.530;2023-08-20T11:22:07;5.05;;;4.40;;
11066;SDS011;29763;50.904;5.530;2023-08-20T11:24:50;4.50;;;4.10;;
11066;SDS011;29763;50.904;5.530;2023-08-20T11:27:22;5.07;;;3.83;;
11066;SDS011;29763;50.904;5.530;2023-08-20T11:29:54;5.07;;;3.85;;
11066;SDS011;29763;50.904;5.530;2023-08-20T11:32:32;7.57;;;4.05;;
11066;SDS011;29763;50.904;5.530;2023-08-20T11:35:08;5.82;;;3.97;;
11066;SDS011;29763;50.904;5.530;2023-08-20T11:37:38;6.65;;;3.78;;
11066;SDS011;29763;50.904;5.530;2023-08-20T11:40:11;6.50;;;3.92;;
11066;SDS011;29763;50.904;5.530;2023-08-20T11:42:41;4.90;;;3.30;;
11066;SDS011;29763;50.904;5.530;2023-08-20T11:45:09;5.20;;;4.68;;
11066;SDS011;29763;50.904;5.530;2023-08-20T11:48:08;6.28;;;4.28;;
11066;SDS011;29763;50.904;5.530;2023-08-20T11:53:42;6.32;;;4.32;;
11066;SDS011;29763;50.904;5.530;2023-08-20T11:56:14;6.53;;;4.80;;
11066;SDS011;29763;50.904;5.530;2023-08-20T11:58:49;5.20;;;4.18;;
11066;SDS011;29763;50.904;5.530;2023-08-20T12:01:23;5.13;;;3.85;;
11066;SDS011;29763;50.904;5.530;2023-08-20T12:03:49;5.63;;;3.97;;
11066;SDS011;29763;50.904;5.530;2023-08-20T12:06:19;5.40;;;4.00;;
11066;SDS011;29763;50.904;5.530;2023-08-20T12:08:53;4.63;;;3.88;;
11066;SDS011;29763;50.904;5.530;2023-08-20T12:11:31;4.57;;;3.80;;
11066;SDS011;29763;50.904;5.530;2023-08-20T12:14:05;4.47;;;3.78;;
11066;SDS011;29763;50.904;5.530;2023-08-20T12:16:40;5.47;;;3.70;;
11066;SDS011;29763;50.904;5.530;2023-08-20T12:19:16;4.65;;;3.55;;
11066;SDS011;29763;50.904;5.530;2023-08-20T12:21:52;5.43;;;4.28;;
11066;SDS011;29763;50.904;5.530;2023-08-20T12:24:29;6.05;;;4.07;;
11066;SDS011;29763;50.904;5.530;2023-08-20T12:27:00;4.65;;;4.03;;
11066;SDS011;29763;50.904;5.530;2023-08-20T12:29:30;4.32;;;3.80;;
11066;SDS011;29763;50.904;5.530;2023-08-20T12:32:15;4.22;;;3.67;;
11066;SDS011;29763;50.904;5.530;2023-08-20T12:34:41;4.32;;;3.83;;
11066;SDS011;29763;50.904;5.530;2023-08-20T12:37:18;4.28;;;3.67;;
11066;SDS011;29763;50.904;5.530;2023-08-20T12:39:47;4.75;;;4.20;;
11066;SDS011;29763;50.904;5.530;2023-08-20T12:42:14;5.07;;;3.90;;
11066;SDS011;29763;50.904;5.530;2023-08-20T12:44:42;4.22;;;3.60;;
11066;SDS011;29763;50.904;5.530;2023-08-20T12:47:14;4.85;;;3.80;;
11066;SDS011;29763;50.904;5.530;2023-08-20T12:49:51;5.38;;;3.83;;
11066;SDS011;29763;50.904;5.530;2023-08-20T12:52:23;3.88;;;3.47;;
11066;SDS011;29763;50.904;5.530;2023-08-20T12:54:51;4.70;;;3.85;;
11066;SDS011;29763;50.904;5.530;2023-08-20T12:57:19;4.15;;;3.75;;
11066;SDS011;29763;50.904;5.530;2023-08-20T12:59:49;4.75;;;3.58;;
11066;SDS011;29763;50.904;5.530;2023-08-20T13:02:18;4.40;;;3.33;;
11066;SDS011;29763;50.904;5.530;2023-08-20T13:04:45;4.80;;;2.38;;
11066;SDS011;29763;50.904;5.530;2023-08-20T13:07:21;4.30;;;2.10;;
11066;SDS011;29763;50.904;5.530;2023-08-20T13:09:57;2.47;;;2.10;;
11066;SDS011;29763;50.904;5.530;2023-08-20T13:12:24;3.25;;;2.10;;
11066;SDS011;29763;50.904;5.530;2023-08-20T13:14:53;3.13;;;2.03;;
11066;SDS011;29763;50.904;5.530;2023-08-20T13:17:23;3.55;;;2.10;;
11066;SDS011;29763;50.904;5.530;2023-08-20T13:19:57;3.17;;;2.38;;
11066;SDS011;29763;50.904;5.530;2023-08-20T13:22:47;2.22;;;1.90;;
11066;SDS011;29763;50.904;5.530;2023-08-20T13:25:17;3.15;;;1.90;;
11066;SDS011;29763;50.904;5.530;2023-08-20T13:27:46;3.35;;;2.05;;
11066;SDS011;29763;50.904;5.530;2023-08-20T13:30:13;2.97;;;1.90;;
11066;SDS011;29763;50.904;5.530;2023-08-20T13:35:29;2.30;;;1.70;;
11066;SDS011;29763;50.904;5.530;2023-08-20T13:37:57;3.70;;;1.80;;
11066;SDS011;29763;50.904;5.530;2023-08-20T13:40:24;2.55;;;1.90;;
11066;SDS011;29763;50.904;5.530;2023-08-20T13:42:57;2.83;;;1.70;;
11066;SDS011;29763;50.904;5.530;2023-08-20T13:45:29;2.15;;;1.63;;
11066;SDS011;29763;50.904;5.530;2023-08-20T13:47:56;2.03;;;1.80;;
11066;SDS011;29763;50.904;5.530;2023-08-20T13:50:24;2.92;;;1.90;;
11066;SDS011;29763;50.904;5.530;2023-08-20T13:52:59;2.90;;;2.00;;
11066;SDS011;29763;50.904;5.530;2023-08-20T13:55:30;2.47;;;1.55;;
11066;SDS011;29763;50.904;5.530;2023-08-20T13:58:03;3.25;;;1.85;;
11066;SDS011;29763;50.904;5.530;2023-08-20T14:00:30;3.42;;;1.80;;
11066;SDS011;29763;50.904;5.530;2023-08-20T14:02:58;2.25;;;1.80;;
11066;SDS011;29763;50.904;5.530;2023-08-20T14:05:24;2.15;;;1.70;;
11066;SDS011;29763;50.904;5.530;2023-08-20T14:08:17;2.08;;;1.70;;
11066;SDS011;29763;50.904;5.530;2023-08-20T14:10:50;2.40;;;1.70;;
11066;SDS011;29763;50.904;5.530;2023-08-20T14:13:25;2.45;;;1.52;;
11066;SDS011;29763;50.904;5.530;2023-08-20T14:15:50;3.60;;;2.00;;
11066;SDS011;29763;50.904;5.530;2023-08-20T14:18:18;2.08;;;1.70;;
11066;SDS011;29763;50.904;5.530;2023-08-20T14:20:56;3.63;;;1.70;;
11066;SDS011;29763;50.904;5.530;2023-08-20T14:23:23;3.00;;;1.88;;
11066;SDS011;29763;50.904;5.530;2023-08-20T14:26:00;2.35;;;1.90;;
11066;SDS011;29763;50.904;5.530;2023-08-20T14:28:33;2.38;;;1.92;;
11066;SDS011;29763;50.904;5.530;2023-08-20T14:31:11;2.67;;;1.90;;
11066;SDS011;29763;50.904;5.530;2023-08-20T14:33:38;2.90;;;2.00;;
11066;SDS011;29763;50.904;5.530;2023-08-20T14:36:04;2.60;;;1.60;;
11066;SDS011;29763;50.904;5.530;2023-08-20T14:38:33;3.40;;;1.70;;
11066;SDS011;29763;50.904;5.530;2023-08-20T14:41:08;3.70;;;2.20;;
11066;SDS011;29763;50.904;5.530;2023-08-20T14:43:36;3.53;;;1.90;;
11066;SDS011;29763;50.904;5.530;2023-08-20T14:46:17;2.88;;;1.95;;
11066;SDS011;29763;50.904;5.530;2023-08-20T14:48:50;2.65;;;2.15;;
11066;SDS011;29763;50.904;5.530;2023-08-20T14:51:28;3.05;;;2.00;;
11066;SDS011;29763;50.904;5.530;2023-08-20T14:54:04;2.53;;;1.83;;
11066;SDS011;29763;50.904;5.530;2023-08-20T14:56:32;2.50;;;1.80;;
11066;SDS011;29763;50.904;5.530;2023-08-20T14:59:02;3.53;;;2.00;;
11066;SDS011;29763;50.904;5.530;2023-08-20T15:01:40;3.60;;;2.13;;
11066;SDS011;29763;50.904;5.530;2023-08-20T15:04:13;4.63;;;1.90;;
11066;SDS011;29763;50.904;5.530;2023-08-20T15:09:44;4.50;;;2.45;;
11066;SDS011;29763;50.904;5.530;2023-08-20T15:12:44;3.38;;;2.08;;
11066;SDS011;29763;50.904;5.530;2023-08-20T15:15:16;3.00;;;1.98;;
11066;SDS011;29763;50.904;5.530;2023-08-20T15:17:46;2.70;;;2.10;;
11066;SDS011;29763;50.904;5.530;2023-08-20T15:20:15;3.78;;;2.10;;
11066;SDS011;29763;50.904;5.530;2023-08-20T15:22:53;5.07;;;2.30;;
11066;SDS011;29763;50.904;5.530;2023-08-20T15:25:26;4.10;;;2.20;;
11066;SDS011;29763;50.904;5.530;2023-08-20T15:28:02;5.95;;;2.50;;